Flight Track Log - Related Links

Times and Time Zones

All times are in EDT time to prevent confusion due to time zone crossing. See the SWA508 flight status page for this flight to view local times or setup timezone preferences in your user account.

Time Position Orientation Groundspeed Altitude Reporting Facility
EDT Latitude Longitude Course Direction KTS MPH feet Rate Location/Type
Fri 01:17:19 PM 41.8000 -87.8000 86° East 226 260 3,000  Level Chicago TRACON
Fri 01:18:19 PM 41.8333 -87.7333 56° Northeast 218 251 3,000 1,000 Level Chicago TRACON
Fri 01:19:19 PM 41.8167 -87.6500 105° East 238 274 5,000 1,082 Climbing Chicago TRACON
Fri 01:20:21 PM 41.8033 -87.5700 103° East 241 277 5,200 2,081 Climbing Chicago Center
Fri 01:21:23 PM 41.7917 -87.4400 97° East 286 329 9,300 3,339 Climbing Chicago Center
Fri 01:22:00 PM 41.7504 -86.8096 86° East  Level FlightAware Approximate
Fri 01:22:25 PM 41.7831 -87.3219 96° East 314 361 12,100  Level Chicago Center
Fri 01:24:29 PM 41.7631 -87.0553 96° East 383 441 15,400 2,065 Climbing Chicago Center
Fri 01:25:31 PM 41.7636 -86.8931 90° East 432 497 18,500 2,952 Climbing Chicago Center
Fri 01:26:33 PM 41.7658 -86.7356 89° East 427 491 21,500 2,177 Climbing Chicago Center
Fri 01:27:35 PM 41.7669 -86.5639 89° East 448 516 23,000 1,935 Climbing Chicago Center
Fri 01:28:37 PM 41.7675 -86.3642 90° East 449 517 25,500 2,274 Climbing Chicago Center
Fri 01:29:39 PM 41.7778 -86.1889 85° East 468 539 27,700 2,016 Climbing Chicago Center
Fri 01:30:42 PM 41.8114 -86.0169 75° East 477 549 29,700 1,824 Climbing Chicago Center
Fri 01:31:44 PM 41.8472 -85.8408 75° East 486 559 31,500 1,065 Climbing Chicago Center
Fri 01:32:46 PM 41.8708 -85.6481 81° East 533 613 31,900 1,258 Climbing Chicago Center
Fri 01:33:48 PM 41.8556 -85.4411 96° East 550 633 34,100 2,032 Climbing Chicago Center
Fri 01:34:50 PM 41.8411 -85.2386 95° East 539 620 36,100 1,403 Climbing Chicago Center
Fri 01:35:52 PM 41.8264 -85.0386 96° East 535 616 37,000 684 Climbing Chicago Center
Fri 01:36:09 PM 41.8206 -84.9442 95° East 550 633 37,000  Level Cleveland Center
Fri 01:37:09 PM 41.8050 -84.7508 96° East 533 613 37,000  Level Cleveland Center
Fri 01:38:09 PM 41.7911 -84.5550 95° East 528 608 37,000  Level Cleveland Center
Fri 01:39:09 PM 41.7769 -84.3564 95° East 528 608 37,000  Level Cleveland Center
Fri 01:40:09 PM 41.7742 -84.1836 91° East 523 602 37,000  Level Cleveland Center
Fri 01:41:09 PM 41.7664 -83.9631 93° East 523 602 37,000  Level Cleveland Center
Fri 01:42:09 PM 41.7258 -83.7772 106° East 524 603 37,000  Level Cleveland Center
Fri 01:43:09 PM 41.6828 -83.5944 107° East 514 592 37,000  Level Cleveland Center
Fri 01:44:09 PM 41.6375 -83.4061 108° East 527 606 37,000  Level Cleveland Center
Fri 01:45:09 PM 41.5939 -83.2208 107° East 527 606 37,000  Level Cleveland Center
Fri 01:46:09 PM 41.5561 -83.0528 107° East 522 601 37,000  Level Cleveland Center
Fri 01:47:09 PM 41.5058 -82.8511 108° East 527 606 37,000  Level Cleveland Center
Fri 01:48:09 PM 41.4594 -82.6639 108° East 527 606 37,000  Level Cleveland Center
Fri 01:49:09 PM 41.4147 -82.4769 108° East 527 606 37,000  Level Cleveland Center
Fri 01:50:09 PM 41.3678 -82.2931 109° East 527 606 37,000  Level Cleveland Center
Fri 01:51:09 PM 41.3303 -82.1428 108° East 527 606 37,000  Level Cleveland Center
Fri 01:52:09 PM 41.2808 -81.9369 108° East 527 606 37,000  Level Cleveland Center
Fri 01:53:09 PM 41.2328 -81.7483 109° East 527 606 37,000  Level Cleveland Center
Fri 01:54:09 PM 41.1867 -81.5653 108° East 527 606 37,000  Level Cleveland Center
Fri 01:55:09 PM 41.1297 -81.3606 110° East 527 606 37,000  Level Cleveland Center
Fri 01:56:09 PM 41.0808 -81.1781 110° East 531 611 37,000  Level Cleveland Center
Fri 01:57:09 PM 41.0419 -81.0125 107° East 526 605 37,000  Level Cleveland Center
Fri 01:58:09 PM 40.9925 -80.8278 109° East 526 605 37,000  Level Cleveland Center
Fri 01:59:09 PM 40.9447 -80.6492 109° East 526 605 37,000  Level Cleveland Center
Fri 02:00:09 PM 40.8947 -80.4650 110° East 526 605 37,000  Level Cleveland Center
Fri 02:01:09 PM 40.8422 -80.2894 112° Southeast 526 605 37,000  Level Cleveland Center
Fri 02:02:09 PM 40.7875 -80.1114 112° Southeast 526 605 37,000  Level Cleveland Center
Fri 02:03:09 PM 40.7242 -79.9339 115° Southeast 521 600 37,000  Level Cleveland Center
Fri 02:04:09 PM 40.6561 -79.7428 115° Southeast 526 605 37,000  Level Cleveland Center
Fri 02:05:09 PM 40.5922 -79.5686 116° Southeast 526 605 37,000 -300 Level Cleveland Center
Fri 02:06:09 PM 40.5281 -79.3975 116° Southeast 526 605 36,400 -850 Descending Cleveland Center
Fri 02:07:09 PM 40.4594 -79.2322 119° Southeast 521 600 35,300 -1,050 Descending Cleveland Center
Fri 02:08:09 PM 40.3703 -79.0953 130° Southeast 495 570 34,300 -950 Descending Cleveland Center
Fri 02:09:09 PM 40.2767 -78.9611 132° Southeast 500 575 33,400 -650 Descending Cleveland Center
Fri 02:10:09 PM 40.1786 -78.8222 133° Southeast 507 583 33,000 -200 Descending Cleveland Center
Fri 02:11:09 PM 40.1406 -78.6522 106° East 473 544 33,000 -900 Level Cleveland Center
Fri 02:12:09 PM 40.1792 -78.4881 73° East 443 510 31,200 -2,000 Descending Cleveland Center
Fri 02:13:09 PM 40.2200 -78.3289 71° East 443 510 29,000 -2,150 Descending Cleveland Center
Fri 02:14:09 PM 40.2606 -78.1725 71° East 443 510 26,900 -1,371 Descending Cleveland Center
Fri 02:16:04 PM 40.3150 -77.9008 75° East 438 504 25,000 -852 Descending New York Center
Fri 02:17:05 PM 40.3097 -77.7450 92° East 419 482 24,400 -793 Descending New York Center
Fri 02:18:05 PM 40.3083 -77.5897 91° East 419 482 23,400 -1,091 Descending New York Center
Fri 02:19:06 PM 40.3075 -77.4206 90° East 426 490 22,200 -1,059 Descending New York Center
Fri 02:20:04 PM 40.3044 -77.2897 92° East 413 475 21,300 -942 Descending New York Center
Fri 02:21:07 PM 40.3019 -77.1453 91° East 403 464 20,300 -1,000 Descending New York Center
Fri 02:22:04 PM 40.2844 -77.0019 99° East 398 458 19,300 -1,017 Descending New York Center
Fri 02:23:05 PM 40.2525 -76.8550 106° East 388 447 18,300 -738 Descending New York Center
Fri 02:24:06 PM 40.2233 -76.7328 107° East 388 447 17,800 -807 Descending New York Center
Fri 02:25:04 PM 40.1908 -76.5942 107° East 378 435 16,700 -1,059 Descending New York Center
Fri 02:26:05 PM 40.1614 -76.4667 107° East 371 427 15,700 -934 Descending New York Center
Fri 02:27:06 PM 40.1300 -76.3419 108° East 376 433 14,800 -1,109 Descending New York Center
Fri 02:28:04 PM 40.1147 -76.2239 100° East 369 425 13,500 -1,678 Descending New York Center
Fri 02:29:04 PM 40.1064 -76.0819 94° East 355 409 11,500 -1,587 Descending New York Center
Fri 02:30:05 PM 40.0972 -75.9619 96° East 350 403 10,300 -1,024 Descending New York Center
Fri 02:31:07 PM 40.0931 -75.8667 93° East 326 375 9,400 -1,109 Descending New York Center
Fri 02:32:04 PM 40.0853 -75.7575 95° East 309 356 8,100 -1,068 Descending New York Center
Fri 02:33:05 PM 40.0811 -75.6542 93° East 297 342 7,300 -885 Descending New York Center
Fri 02:34:06 PM 40.0747 -75.5561 95° East 286 329 6,300 -694 Descending New York Center
Fri 02:35:06 PM 40.0703 -75.4608 93° East 275 316 5,900 -500 Descending New York Center
Fri 02:36:06 PM 40.0658 -75.3656 93° East 270 311 5,300 -741 Descending New York Center
Fri 02:36:27 PM 40.0667 -75.3167 89° East 260 299 4,900 -281 Descending Philadelphia TRACON
Fri 02:37:10 PM 40.0667 -75.2500 90° East 253 291 5,000  Climbing Philadelphia TRACON
Fri 02:38:10 PM 40.0167 -75.1833 134° Southeast 239 275 4,900  Descending Philadelphia TRACON
Fri 02:39:16 PM 39.9833 -75.1333 131° Southeast 195 224 5,000 -150 Climbing Philadelphia TRACON
Fri 02:40:10 PM 40.0000 -75.0667 72° East 192 221 4,600 -526 Descending Philadelphia TRACON
Fri 02:41:10 PM 40.0167 -75.0000 72° East 193 222 4,000 -333 Descending Philadelphia TRACON
Fri 02:42:16 PM 39.9833 -74.9500 131° Southeast 193 222 3,900 -524 Descending Philadelphia TRACON
Fri 02:43:16 PM 39.9500 -74.9667 201° Southwest 180 207 2,900 -714 Descending Philadelphia TRACON
Fri 02:44:22 PM 39.9167 -75.0333 237° Southwest 175 201 2,400 -450 Descending Philadelphia TRACON
Fri 02:45:16 PM 39.9000 -75.0833 247° West 174 200 2,000 -500 Descending Philadelphia TRACON
Fri 02:46:10 PM 39.9000 -75.1333 270° West 144 166 1,500 -667 Descending Philadelphia TRACON
Fri 02:47:22 PM 39.8833 -75.1833 247° West 133 153 600 -750 Descending Philadelphia TRACON
Fri 02:49:00 PM 39.8667 -75.2333 247° West  Level FlightAware Approximate
Fri 02:56:00 PM 39.8722 -75.2409 247° West  Level Estimated

Login

Don't have an account? Register now (free) for customized features, flight alerts, and more!